sensor_id;sensor_type;location;lat;lon;timestamp;pressure;altitude;pressure_sealevel;temperature;humidity
21401;BME280;18038;50.166;18.908;2023-04-06T00:02:21;98325.50;;;-3.47;61.64
21401;BME280;18038;50.166;18.908;2023-04-06T00:05:27;98327.28;;;-3.48;61.09
21401;BME280;18038;50.166;18.908;2023-04-06T00:08:34;98331.94;;;-3.53;60.90
21401;BME280;18038;50.166;18.908;2023-04-06T00:11:40;98330.38;;;-3.55;61.15
21401;BME280;18038;50.166;18.908;2023-04-06T00:14:50;98320.97;;;-3.58;60.91
21401;BME280;18038;50.166;18.908;2023-04-06T00:17:56;98333.81;;;-3.55;60.86
21401;BME280;18038;50.166;18.908;2023-04-06T00:21:03;98328.69;;;-3.57;60.86
21401;BME280;18038;50.166;18.908;2023-04-06T00:24:09;98327.84;;;-3.57;61.06
21401;BME280;18038;50.166;18.908;2023-04-06T00:27:16;98325.69;;;-3.50;61.07
21401;BME280;18038;50.166;18.908;2023-04-06T00:30:25;98323.91;;;-3.50;61.08
21401;BME280;18038;50.166;18.908;2023-04-06T00:33:32;98323.28;;;-3.53;60.99
21401;BME280;18038;50.166;18.908;2023-04-06T00:36:38;98325.09;;;-3.68;61.38
21401;BME280;18038;50.166;18.908;2023-04-06T00:39:45;98319.03;;;-3.69;61.52
21401;BME280;18038;50.166;18.908;2023-04-06T00:42:51;98316.72;;;-3.73;62.04
21401;BME280;18038;50.166;18.908;2023-04-06T00:46:01;98315.69;;;-3.71;62.05
21401;BME280;18038;50.166;18.908;2023-04-06T00:49:09;98325.19;;;-3.70;62.25
21401;BME280;18038;50.166;18.908;2023-04-06T00:52:16;98311.78;;;-3.78;62.45
21401;BME280;18038;50.166;18.908;2023-04-06T00:55:23;98311.41;;;-3.72;62.16
21401;BME280;18038;50.166;18.908;2023-04-06T00:58:30;98319.59;;;-3.64;62.18
21401;BME280;18038;50.166;18.908;2023-04-06T01:01:45;98317.16;;;-3.67;62.29
21401;BME280;18038;50.166;18.908;2023-04-06T01:05:16;98319.47;;;-3.62;62.41
21401;BME280;18038;50.166;18.908;2023-04-06T01:08:27;98310.38;;;-3.69;62.61
21401;BME280;18038;50.166;18.908;2023-04-06T01:11:47;98303.38;;;-3.69;62.71
21401;BME280;18038;50.166;18.908;2023-04-06T01:14:57;98313.06;;;-3.71;62.89
21401;BME280;18038;50.166;18.908;2023-04-06T01:18:10;98311.22;;;-3.69;62.86
21401;BME280;18038;50.166;18.908;2023-04-06T01:21:26;98312.03;;;-3.68;62.86
21401;BME280;18038;50.166;18.908;2023-04-06T01:24:59;98308.06;;;-3.74;63.13
21401;BME280;18038;50.166;18.908;2023-04-06T01:28:10;98307.91;;;-3.85;63.41
21401;BME280;18038;50.166;18.908;2023-04-06T01:31:31;98311.63;;;-3.89;63.82
21401;BME280;18038;50.166;18.908;2023-04-06T01:34:37;98307.63;;;-3.95;63.84
21401;BME280;18038;50.166;18.908;2023-04-06T01:37:45;98308.66;;;-3.97;63.88
21401;BME280;18038;50.166;18.908;2023-04-06T01:41:01;98304.56;;;-4.02;64.43
21401;BME280;18038;50.166;18.908;2023-04-06T01:44:19;98303.19;;;-4.07;64.67
21401;BME280;18038;50.166;18.908;2023-04-06T01:47:37;98302.34;;;-4.08;64.98
21401;BME280;18038;50.166;18.908;2023-04-06T01:50:46;98302.53;;;-4.11;65.02
21401;BME280;18038;50.166;18.908;2023-04-06T01:53:58;98295.94;;;-4.16;65.19
21401;BME280;18038;50.166;18.908;2023-04-06T01:57:27;98298.06;;;-4.09;65.37
21401;BME280;18038;50.166;18.908;2023-04-06T02:00:43;98296.94;;;-4.05;65.10
21401;BME280;18038;50.166;18.908;2023-04-06T02:03:51;98293.97;;;-3.98;64.90
21401;BME280;18038;50.166;18.908;2023-04-06T02:06:57;98294.03;;;-4.00;65.14
21401;BME280;18038;50.166;18.908;2023-04-06T02:10:11;98294.88;;;-3.99;65.07
21401;BME280;18038;50.166;18.908;2023-04-06T02:13:22;98293.00;;;-3.97;65.11
21401;BME280;18038;50.166;18.908;2023-04-06T02:16:30;98292.38;;;-4.01;65.39
21401;BME280;18038;50.166;18.908;2023-04-06T02:19:36;98291.44;;;-4.00;65.37
21401;BME280;18038;50.166;18.908;2023-04-06T02:22:44;98295.63;;;-3.97;65.42
21401;BME280;18038;50.166;18.908;2023-04-06T02:25:50;98290.59;;;-4.01;65.52
21401;BME280;18038;50.166;18.908;2023-04-06T02:28:59;98291.50;;;-4.02;65.72
21401;BME280;18038;50.166;18.908;2023-04-06T02:32:07;98291.72;;;-4.05;66.04
21401;BME280;18038;50.166;18.908;2023-04-06T02:35:14;98297.41;;;-4.12;66.28
21401;BME280;18038;50.166;18.908;2023-04-06T02:38:24;98293.03;;;-4.12;66.46
21401;BME280;18038;50.166;18.908;2023-04-06T02:41:31;98292.09;;;-4.11;66.49
21401;BME280;18038;50.166;18.908;2023-04-06T02:44:40;98285.03;;;-4.09;66.65
21401;BME280;18038;50.166;18.908;2023-04-06T02:47:48;98281.56;;;-4.09;66.27
21401;BME280;18038;50.166;18.908;2023-04-06T02:50:54;98295.75;;;-4.13;66.42
21401;BME280;18038;50.166;18.908;2023-04-06T02:54:00;98295.09;;;-4.17;66.20
21401;BME280;18038;50.166;18.908;2023-04-06T02:57:07;98295.59;;;-4.25;66.33
21401;BME280;18038;50.166;18.908;2023-04-06T03:00:22;98298.28;;;-4.26;66.32
21401;BME280;18038;50.166;18.908;2023-04-06T03:03:28;98302.94;;;-4.31;66.56
21401;BME280;18038;50.166;18.908;2023-04-06T03:06:35;98301.91;;;-4.29;66.56
21401;BME280;18038;50.166;18.908;2023-04-06T03:09:55;98295.38;;;-4.21;66.55
21401;BME280;18038;50.166;18.908;2023-04-06T03:13:08;98296.22;;;-4.21;66.62
21401;BME280;18038;50.166;18.908;2023-04-06T03:16:37;98303.97;;;-4.19;66.61
21401;BME280;18038;50.166;18.908;2023-04-06T03:19:44;98297.81;;;-4.18;66.38
21401;BME280;18038;50.166;18.908;2023-04-06T03:22:51;98301.03;;;-4.15;66.50
21401;BME280;18038;50.166;18.908;2023-04-06T03:26:03;98304.03;;;-4.21;66.80
21401;BME280;18038;50.166;18.908;2023-04-06T03:29:09;98304.25;;;-4.24;66.70
21401;BME280;18038;50.166;18.908;2023-04-06T03:32:18;98308.50;;;-4.23;66.82
21401;BME280;18038;50.166;18.908;2023-04-06T03:35:24;98300.88;;;-4.26;67.02
21401;BME280;18038;50.166;18.908;2023-04-06T03:38:32;98306.09;;;-4.26;67.37
21401;BME280;18038;50.166;18.908;2023-04-06T03:41:45;98315.78;;;-4.28;67.61
21401;BME280;18038;50.166;18.908;2023-04-06T03:45:16;98314.13;;;-4.29;67.37
21401;BME280;18038;50.166;18.908;2023-04-06T03:48:28;98314.50;;;-4.35;67.74
21401;BME280;18038;50.166;18.908;2023-04-06T03:51:39;98304.44;;;-4.41;67.91
21401;BME280;18038;50.166;18.908;2023-04-06T03:54:45;98316.72;;;-4.43;68.04
21401;BME280;18038;50.166;18.908;2023-04-06T03:57:52;98313.19;;;-4.42;67.72
21401;BME280;18038;50.166;18.908;2023-04-06T04:00:59;98315.06;;;-4.45;67.97
21401;BME280;18038;50.166;18.908;2023-04-06T04:04:09;98316.56;;;-4.40;67.83
21401;BME280;18038;50.166;18.908;2023-04-06T04:07:15;98316.44;;;-4.39;67.77
21401;BME280;18038;50.166;18.908;2023-04-06T04:10:22;98317.47;;;-4.41;67.84
21401;BME280;18038;50.166;18.908;2023-04-06T04:13:28;98312.16;;;-4.40;68.01
21401;BME280;18038;50.166;18.908;2023-04-06T04:16:37;98311.22;;;-4.39;68.29
21401;BME280;18038;50.166;18.908;2023-04-06T04:19:47;98320.06;;;-4.41;68.24
21401;BME280;18038;50.166;18.908;2023-04-06T04:22:56;98315.81;;;-4.42;68.25
21401;BME280;18038;50.166;18.908;2023-04-06T04:26:20;98321.00;;;-4.42;68.23
21401;BME280;18038;50.166;18.908;2023-04-06T04:29:26;98316.91;;;-4.47;68.53
21401;BME280;18038;50.166;18.908;2023-04-06T04:32:37;98325.59;;;-4.46;68.46
21401;BME280;18038;50.166;18.908;2023-04-06T04:35:48;98321.84;;;-4.42;68.39
21401;BME280;18038;50.166;18.908;2023-04-06T04:38:56;98321.75;;;-4.40;68.45
21401;BME280;18038;50.166;18.908;2023-04-06T04:42:07;98316.16;;;-4.34;68.26
21401;BME280;18038;50.166;18.908;2023-04-06T04:45:21;98322.22;;;-4.34;68.29
21401;BME280;18038;50.166;18.908;2023-04-06T04:48:28;98327.03;;;-4.28;68.28
21401;BME280;18038;50.166;18.908;2023-04-06T04:51:40;98322.22;;;-4.19;68.23
21401;BME280;18038;50.166;18.908;2023-04-06T04:54:49;98321.16;;;-4.03;67.61
21401;BME280;18038;50.166;18.908;2023-04-06T04:58:02;98319.94;;;-3.97;67.26
21401;BME280;18038;50.166;18.908;2023-04-06T05:01:23;98324.88;;;-3.92;67.73
21401;BME280;18038;50.166;18.908;2023-04-06T05:04:30;98323.72;;;-3.88;67.03
21401;BME280;18038;50.166;18.908;2023-04-06T05:07:42;98312.44;;;-3.74;66.96
21401;BME280;18038;50.166;18.908;2023-04-06T05:11:02;98314.91;;;-3.59;66.36
21401;BME280;18038;50.166;18.908;2023-04-06T05:14:13;98317.78;;;-3.36;65.71
21401;BME280;18038;50.166;18.908;2023-04-06T05:17:21;98310.41;;;-3.17;64.69
21401;BME280;18038;50.166;18.908;2023-04-06T05:20:32;98317.78;;;-2.96;64.04
21401;BME280;18038;50.166;18.908;2023-04-06T05:23:41;98322.19;;;-2.84;63.00
21401;BME280;18038;50.166;18.908;2023-04-06T05:26:48;98309.84;;;-2.69;63.04
21401;BME280;18038;50.166;18.908;2023-04-06T05:29:58;98310.66;;;-2.43;62.26
21401;BME280;18038;50.166;18.908;2023-04-06T05:33:09;98316.53;;;-2.39;61.30
21401;BME280;18038;50.166;18.908;2023-04-06T05:36:30;98318.19;;;-2.26;60.76
21401;BME280;18038;50.166;18.908;2023-04-06T05:39:46;98314.63;;;-2.25;60.25
21401;BME280;18038;50.166;18.908;2023-04-06T05:42:53;98319.75;;;-2.10;60.10
21401;BME280;18038;50.166;18.908;2023-04-06T05:46:01;98310.22;;;-2.11;59.80
21401;BME280;18038;50.166;18.908;2023-04-06T05:49:07;98317.94;;;-1.97;59.60
21401;BME280;18038;50.166;18.908;2023-04-06T05:52:15;98311.81;;;-1.85;59.19
21401;BME280;18038;50.166;18.908;2023-04-06T05:55:25;98313.84;;;-1.64;58.59
21401;BME280;18038;50.166;18.908;2023-04-06T05:58:44;98316.91;;;-1.46;57.88
21401;BME280;18038;50.166;18.908;2023-04-06T06:01:58;98319.78;;;-1.49;57.18
21401;BME280;18038;50.166;18.908;2023-04-06T06:05:08;98313.31;;;-1.21;56.60
21401;BME280;18038;50.166;18.908;2023-04-06T06:08:17;98308.44;;;-0.90;56.44
21401;BME280;18038;50.166;18.908;2023-04-06T06:11:28;98299.41;;;-0.41;54.59
21401;BME280;18038;50.166;18.908;2023-04-06T06:14:36;98307.31;;;-0.30;54.45
21401;BME280;18038;50.166;18.908;2023-04-06T06:17:43;98301.56;;;0.10;52.98
21401;BME280;18038;50.166;18.908;2023-04-06T06:20:56;98302.97;;;0.14;52.69
21401;BME280;18038;50.166;18.908;2023-04-06T06:24:10;98298.19;;;0.30;51.97
21401;BME280;18038;50.166;18.908;2023-04-06T06:27:19;98298.25;;;0.40;51.49
21401;BME280;18038;50.166;18.908;2023-04-06T06:30:26;98292.00;;;0.20;51.44
21401;BME280;18038;50.166;18.908;2023-04-06T06:33:33;98301.00;;;0.50;51.46
21401;BME280;18038;50.166;18.908;2023-04-06T06:36:40;98301.72;;;0.40;50.98
21401;BME280;18038;50.166;18.908;2023-04-06T06:39:50;98304.50;;;0.71;50.71
21401;BME280;18038;50.166;18.908;2023-04-06T06:43:00;98296.75;;;0.91;49.60
21401;BME280;18038;50.166;18.908;2023-04-06T06:46:11;98307.19;;;1.44;48.75
21401;BME280;18038;50.166;18.908;2023-04-06T06:49:19;98304.91;;;1.29;47.97
21401;BME280;18038;50.166;18.908;2023-04-06T06:52:25;98310.38;;;1.38;48.46
21401;BME280;18038;50.166;18.908;2023-04-06T06:55:32;98309.72;;;1.03;48.84
21401;BME280;18038;50.166;18.908;2023-04-06T06:58:41;98313.78;;;1.07;48.03
21401;BME280;18038;50.166;18.908;2023-04-06T07:01:50;98301.09;;;1.13;48.79
21401;BME280;18038;50.166;18.908;2023-04-06T07:04:56;98306.53;;;1.21;47.30
21401;BME280;18038;50.166;18.908;2023-04-06T07:08:05;98307.47;;;0.78;47.46
21401;BME280;18038;50.166;18.908;2023-04-06T07:11:11;98311.72;;;1.11;48.92
21401;BME280;18038;50.166;18.908;2023-04-06T07:14:20;98317.22;;;1.50;46.28
21401;BME280;18038;50.166;18.908;2023-04-06T07:17:26;98312.09;;;1.27;46.55
21401;BME280;18038;50.166;18.908;2023-04-06T07:20:33;98311.88;;;1.10;46.33
21401;BME280;18038;50.166;18.908;2023-04-06T07:23:39;98309.63;;;1.26;45.58
21401;BME280;18038;50.166;18.908;2023-04-06T07:26:50;98324.69;;;1.45;45.69
21401;BME280;18038;50.166;18.908;2023-04-06T07:29:59;98316.91;;;2.05;46.10
21401;BME280;18038;50.166;18.908;2023-04-06T07:33:07;98317.66;;;2.16;43.47
21401;BME280;18038;50.166;18.908;2023-04-06T07:36:14;98312.13;;;2.29;42.91
21401;BME280;18038;50.166;18.908;2023-04-06T07:39:21;98314.72;;;1.48;42.43
21401;BME280;18038;50.166;18.908;2023-04-06T07:42:31;98328.31;;;2.05;42.11
21401;BME280;18038;50.166;18.908;2023-04-06T07:45:43;98314.00;;;3.45;39.64
21401;BME280;18038;50.166;18.908;2023-04-06T07:49:01;98318.53;;;4.28;37.96
21401;BME280;18038;50.166;18.908;2023-04-06T07:52:10;98309.53;;;4.84;35.84
21401;BME280;18038;50.166;18.908;2023-04-06T07:55:17;98312.25;;;4.74;36.28
21401;BME280;18038;50.166;18.908;2023-04-06T07:58:24;98313.97;;;5.63;35.85
21401;BME280;18038;50.166;18.908;2023-04-06T08:01:33;98303.97;;;5.31;34.57
21401;BME280;18038;50.166;18.908;2023-04-06T08:04:40;98305.91;;;5.47;34.83
21401;BME280;18038;50.166;18.908;2023-04-06T08:07:47;98311.09;;;5.31;34.91
21401;BME280;18038;50.166;18.908;2023-04-06T08:10:54;98310.63;;;5.87;34.18
21401;BME280;18038;50.166;18.908;2023-04-06T08:14:03;98303.66;;;6.12;34.01
21401;BME280;18038;50.166;18.908;2023-04-06T08:17:13;98300.53;;;5.91;34.34
21401;BME280;18038;50.166;18.908;2023-04-06T08:20:19;98303.41;;;5.98;33.67
21401;BME280;18038;50.166;18.908;2023-04-06T08:23:28;98300.56;;;6.33;33.83
21401;BME280;18038;50.166;18.908;2023-04-06T08:26:40;98302.47;;;5.11;35.04
21401;BME280;18038;50.166;18.908;2023-04-06T08:29:50;98301.28;;;4.69;35.97
21401;BME280;18038;50.166;18.908;2023-04-06T08:32:58;98303.63;;;4.54;36.45
21401;BME280;18038;50.166;18.908;2023-04-06T08:36:17;98298.56;;;5.15;35.79
21401;BME280;18038;50.166;18.908;2023-04-06T08:39:25;98292.44;;;4.78;36.19
21401;BME280;18038;50.166;18.908;2023-04-06T08:42:40;98288.22;;;3.95;38.14
21401;BME280;18038;50.166;18.908;2023-04-06T08:45:49;98292.97;;;4.46;38.15
21401;BME280;18038;50.166;18.908;2023-04-06T08:49:00;98290.31;;;4.01;37.41
21401;BME280;18038;50.166;18.908;2023-04-06T08:52:10;98287.28;;;3.48;38.64
21401;BME280;18038;50.166;18.908;2023-04-06T08:55:18;98291.47;;;3.32;39.43
21401;BME280;18038;50.166;18.908;2023-04-06T08:58:26;98282.63;;;2.94;40.42
21401;BME280;18038;50.166;18.908;2023-04-06T09:01:44;98280.38;;;3.28;40.49
21401;BME280;18038;50.166;18.908;2023-04-06T09:04:55;98280.06;;;3.51;39.07
21401;BME280;18038;50.166;18.908;2023-04-06T09:08:02;98280.53;;;2.78;40.12
21401;BME280;18038;50.166;18.908;2023-04-06T09:11:10;98279.59;;;2.79;40.83
21401;BME280;18038;50.166;18.908;2023-04-06T09:14:32;98270.97;;;2.96;41.24
21401;BME280;18038;50.166;18.908;2023-04-06T09:17:46;98275.84;;;2.72;41.67
21401;BME280;18038;50.166;18.908;2023-04-06T09:21:01;98278.88;;;2.57;41.65
21401;BME280;18038;50.166;18.908;2023-04-06T09:24:09;98281.50;;;2.38;40.77
21401;BME280;18038;50.166;18.908;2023-04-06T09:27:30;98270.41;;;2.64;42.32
21401;BME280;18038;50.166;18.908;2023-04-06T09:30:47;98264.72;;;2.88;40.51
21401;BME280;18038;50.166;18.908;2023-04-06T09:33:56;98266.94;;;3.12;41.14
21401;BME280;18038;50.166;18.908;2023-04-06T09:37:15;98264.66;;;3.36;39.93
21401;BME280;18038;50.166;18.908;2023-04-06T09:40:27;98259.72;;;3.61;40.62
21401;BME280;18038;50.166;18.908;2023-04-06T09:43:33;98256.28;;;3.88;39.57
21401;BME280;18038;50.166;18.908;2023-04-06T09:46:41;98256.03;;;3.34;39.56
21401;BME280;18038;50.166;18.908;2023-04-06T09:50:02;98246.75;;;3.30;40.18
21401;BME280;18038;50.166;18.908;2023-04-06T09:53:16;98247.38;;;3.52;39.16
21401;BME280;18038;50.166;18.908;2023-04-06T09:56:28;98257.84;;;3.34;40.20
21401;BME280;18038;50.166;18.908;2023-04-06T09:59:46;98250.88;;;3.42;39.71
21401;BME280;18038;50.166;18.908;2023-04-06T10:03:01;98248.41;;;3.31;39.81
21401;BME280;18038;50.166;18.908;2023-04-06T10:06:17;98238.00;;;3.30;40.23
21401;BME280;18038;50.166;18.908;2023-04-06T10:09:31;98239.09;;;3.37;39.67
21401;BME280;18038;50.166;18.908;2023-04-06T10:12:54;98232.38;;;2.76;41.47
21401;BME280;18038;50.166;18.908;2023-04-06T10:16:02;98242.28;;;3.40;40.51
21401;BME280;18038;50.166;18.908;2023-04-06T10:19:20;98236.84;;;3.79;39.92
21401;BME280;18038;50.166;18.908;2023-04-06T10:22:36;98231.84;;;4.04;38.74
21401;BME280;18038;50.166;18.908;2023-04-06T10:26:00;98232.16;;;4.01;39.04
21401;BME280;18038;50.166;18.908;2023-04-06T10:29:08;98229.06;;;3.78;39.10
21401;BME280;18038;50.166;18.908;2023-04-06T10:32:15;98219.03;;;3.54;39.33
21401;BME280;18038;50.166;18.908;2023-04-06T10:35:21;98211.19;;;4.53;38.09
21401;BME280;18038;50.166;18.908;2023-04-06T10:38:35;98224.44;;;4.07;38.40
21401;BME280;18038;50.166;18.908;2023-04-06T10:41:46;98216.34;;;4.54;38.53
21401;BME280;18038;50.166;18.908;2023-04-06T10:44:55;98206.88;;;4.34;38.62
21401;BME280;18038;50.166;18.908;2023-04-06T10:48:14;98211.34;;;3.88;38.46
21401;BME280;18038;50.166;18.908;2023-04-06T10:51:25;98204.25;;;3.88;38.71
21401;BME280;18038;50.166;18.908;2023-04-06T10:54:33;98200.44;;;4.01;38.83
21401;BME280;18038;50.166;18.908;2023-04-06T10:57:48;98206.47;;;4.11;38.80
21401;BME280;18038;50.166;18.908;2023-04-06T11:01:15;98193.34;;;3.74;38.85
21401;BME280;18038;50.166;18.908;2023-04-06T11:04:24;98203.41;;;3.33;39.59
21401;BME280;18038;50.166;18.908;2023-04-06T11:07:30;98201.53;;;3.06;40.21
21401;BME280;18038;50.166;18.908;2023-04-06T11:10:37;98200.28;;;2.71;41.02
21401;BME280;18038;50.166;18.908;2023-04-06T11:13:48;98205.47;;;2.53;41.64
21401;BME280;18038;50.166;18.908;2023-04-06T11:16:56;98208.25;;;2.61;42.04
21401;BME280;18038;50.166;18.908;2023-04-06T11:20:09;98198.53;;;2.42;42.04
21401;BME280;18038;50.166;18.908;2023-04-06T11:23:24;98208.78;;;2.16;42.83
21401;BME280;18038;50.166;18.908;2023-04-06T11:26:30;98199.34;;;2.52;42.54
21401;BME280;18038;50.166;18.908;2023-04-06T11:29:40;98193.25;;;2.42;42.41
21401;BME280;18038;50.166;18.908;2023-04-06T11:32:48;98194.78;;;2.74;41.94
21401;BME280;18038;50.166;18.908;2023-04-06T11:35:57;98194.50;;;2.48;41.10
21401;BME280;18038;50.166;18.908;2023-04-06T11:39:03;98189.66;;;2.43;41.96
21401;BME280;18038;50.166;18.908;2023-04-06T11:42:10;98183.66;;;2.70;41.52
21401;BME280;18038;50.166;18.908;2023-04-06T11:45:20;98184.63;;;2.79;41.45
21401;BME280;18038;50.166;18.908;2023-04-06T11:48:28;98185.22;;;2.34;42.20
21401;BME280;18038;50.166;18.908;2023-04-06T11:51:36;98182.56;;;2.53;41.55
21401;BME280;18038;50.166;18.908;2023-04-06T11:54:43;98176.47;;;2.53;41.00
21401;BME280;18038;50.166;18.908;2023-04-06T11:57:51;98173.81;;;2.43;41.77
21401;BME280;18038;50.166;18.908;2023-04-06T12:01:05;98169.06;;;2.86;41.88
21401;BME280;18038;50.166;18.908;2023-04-06T12:04:11;98165.69;;;2.93;41.35
21401;BME280;18038;50.166;18.908;2023-04-06T12:07:18;98160.44;;;2.93;41.58
21401;BME280;18038;50.166;18.908;2023-04-06T12:10:24;98158.50;;;2.76;40.53
21401;BME280;18038;50.166;18.908;2023-04-06T12:13:31;98164.66;;;2.28;41.63
21401;BME280;18038;50.166;18.908;2023-04-06T12:16:40;98163.41;;;2.42;41.86
21401;BME280;18038;50.166;18.908;2023-04-06T12:19:47;98166.91;;;2.42;42.40
21401;BME280;18038;50.166;18.908;2023-04-06T12:22:56;98164.50;;;2.39;42.25
21401;BME280;18038;50.166;18.908;2023-04-06T12:26:03;98163.53;;;2.50;41.88
21401;BME280;18038;50.166;18.908;2023-04-06T12:29:14;98158.84;;;2.44;41.98
21401;BME280;18038;50.166;18.908;2023-04-06T12:32:24;98155.63;;;2.59;41.96
21401;BME280;18038;50.166;18.908;2023-04-06T12:35:33;98156.91;;;2.36;42.36
21401;BME280;18038;50.166;18.908;2023-04-06T12:38:48;98150.25;;;2.03;42.52
21401;BME280;18038;50.166;18.908;2023-04-06T12:41:57;98152.34;;;2.19;42.55
21401;BME280;18038;50.166;18.908;2023-04-06T12:45:07;98147.88;;;2.09;42.34
21401;BME280;18038;50.166;18.908;2023-04-06T12:48:17;98133.47;;;2.04;42.69
21401;BME280;18038;50.166;18.908;2023-04-06T12:51:27;98148.22;;;1.56;43.42
21401;BME280;18038;50.166;18.908;2023-04-06T12:54:33;98148.53;;;1.63;43.29
21401;BME280;18038;50.166;18.908;2023-04-06T12:57:40;98147.66;;;1.62;43.98
21401;BME280;18038;50.166;18.908;2023-04-06T13:00:46;98139.41;;;1.77;44.22
21401;BME280;18038;50.166;18.908;2023-04-06T13:04:00;98140.56;;;1.43;45.54
21401;BME280;18038;50.166;18.908;2023-04-06T13:07:06;98134.22;;;1.56;45.72
21401;BME280;18038;50.166;18.908;2023-04-06T13:10:13;98137.16;;;1.72;45.28
21401;BME280;18038;50.166;18.908;2023-04-06T13:13:22;98138.00;;;1.82;45.12
21401;BME280;18038;50.166;18.908;2023-04-06T13:16:30;98129.63;;;1.48;46.70
21401;BME280;18038;50.166;18.908;2023-04-06T13:19:39;98136.28;;;1.42;49.10
21401;BME280;18038;50.166;18.908;2023-04-06T13:22:45;98138.44;;;1.27;49.92
21401;BME280;18038;50.166;18.908;2023-04-06T13:25:57;98141.44;;;1.13;51.14
21401;BME280;18038;50.166;18.908;2023-04-06T13:29:06;98136.25;;;1.02;51.88
21401;BME280;18038;50.166;18.908;2023-04-06T13:32:12;98133.03;;;0.98;53.66
21401;BME280;18038;50.166;18.908;2023-04-06T13:35:22;98118.28;;;1.07;54.77
21401;BME280;18038;50.166;18.908;2023-04-06T13:38:29;98141.22;;;0.74;56.42
21401;BME280;18038;50.166;18.908;2023-04-06T13:41:36;98135.06;;;0.64;57.28
21401;BME280;18038;50.166;18.908;2023-04-06T13:44:45;98129.13;;;0.62;57.79
21401;BME280;18038;50.166;18.908;2023-04-06T13:47:54;98134.13;;;0.44;58.88
21401;BME280;18038;50.166;18.908;2023-04-06T13:51:10;98125.66;;;0.40;59.85
21401;BME280;18038;50.166;18.908;2023-04-06T13:54:17;98129.53;;;0.36;61.68
21401;BME280;18038;50.166;18.908;2023-04-06T13:57:25;98122.16;;;0.30;62.89
21401;BME280;18038;50.166;18.908;2023-04-06T14:00:38;98122.03;;;-0.00;63.62
21401;BME280;18038;50.166;18.908;2023-04-06T14:03:44;98120.41;;;-0.13;64.38
21401;BME280;18038;50.166;18.908;2023-04-06T14:06:55;98124.56;;;-0.10;64.94
21401;BME280;18038;50.166;18.908;2023-04-06T14:10:01;98119.53;;;-0.02;65.43
21401;BME280;18038;50.166;18.908;2023-04-06T14:13:16;98119.25;;;-0.20;66.74
21401;BME280;18038;50.166;18.908;2023-04-06T14:16:23;98119.75;;;-0.26;67.35
21401;BME280;18038;50.166;18.908;2023-04-06T14:19:30;98120.06;;;-0.52;68.07
21401;BME280;18038;50.166;18.908;2023-04-06T14:22:41;98121.59;;;-0.06;67.77
21401;BME280;18038;50.166;18.908;2023-04-06T14:25:48;98120.16;;;-0.10;68.09
21401;BME280;18038;50.166;18.908;2023-04-06T14:28:54;98116.06;;;-0.03;67.96
21401;BME280;18038;50.166;18.908;2023-04-06T14:32:01;98110.53;;;0.12;67.08
21401;BME280;18038;50.166;18.908;2023-04-06T14:35:08;98119.53;;;0.30;66.49
21401;BME280;18038;50.166;18.908;2023-04-06T14:38:19;98114.50;;;0.48;64.19
21401;BME280;18038;50.166;18.908;2023-04-06T14:41:24;98111.50;;;0.53;62.89
21401;BME280;18038;50.166;18.908;2023-04-06T14:44:32;98113.94;;;0.45;62.18
21401;BME280;18038;50.166;18.908;2023-04-06T14:47:39;98109.31;;;0.16;61.29
21401;BME280;18038;50.166;18.908;2023-04-06T14:50:52;98120.50;;;-0.03;62.75
21401;BME280;18038;50.166;18.908;2023-04-06T14:54:11;98113.59;;;-0.04;62.35
21401;BME280;18038;50.166;18.908;2023-04-06T14:57:18;98109.69;;;0.11;62.40
21401;BME280;18038;50.166;18.908;2023-04-06T15:00:24;98111.13;;;0.15;62.40
21401;BME280;18038;50.166;18.908;2023-04-06T15:03:33;98117.00;;;0.08;63.46
21401;BME280;18038;50.166;18.908;2023-04-06T15:06:40;98112.13;;;0.24;63.63
21401;BME280;18038;50.166;18.908;2023-04-06T15:09:49;98107.72;;;0.25;62.32
21401;BME280;18038;50.166;18.908;2023-04-06T15:12:55;98105.75;;;-0.15;63.80
21401;BME280;18038;50.166;18.908;2023-04-06T15:16:03;98105.56;;;-0.03;63.81
21401;BME280;18038;50.166;18.908;2023-04-06T15:19:10;98104.34;;;-0.19;64.21
21401;BME280;18038;50.166;18.908;2023-04-06T15:22:20;98107.63;;;-0.06;63.58
21401;BME280;18038;50.166;18.908;2023-04-06T15:25:31;98110.63;;;-0.11;63.91
21401;BME280;18038;50.166;18.908;2023-04-06T15:28:38;98110.63;;;-0.11;63.49
21401;BME280;18038;50.166;18.908;2023-04-06T15:31:44;98109.34;;;-0.16;63.98
21401;BME280;18038;50.166;18.908;2023-04-06T15:34:57;98108.00;;;-0.11;63.90
21401;BME280;18038;50.166;18.908;2023-04-06T15:38:21;98113.56;;;-0.25;64.55
21401;BME280;18038;50.166;18.908;2023-04-06T15:41:35;98114.47;;;-0.15;64.79
21401;BME280;18038;50.166;18.908;2023-04-06T15:44:42;98114.00;;;-0.20;65.12
21401;BME280;18038;50.166;18.908;2023-04-06T15:47:49;98117.31;;;-0.18;65.36
21401;BME280;18038;50.166;18.908;2023-04-06T15:50:56;98113.59;;;-0.48;65.69
21401;BME280;18038;50.166;18.908;2023-04-06T15:54:04;98112.31;;;-0.64;66.11
21401;BME280;18038;50.166;18.908;2023-04-06T15:57:15;98112.66;;;-0.46;66.05
21401;BME280;18038;50.166;18.908;2023-04-06T16:00:28;98112.06;;;-0.50;65.76
21401;BME280;18038;50.166;18.908;2023-04-06T16:03:35;98113.84;;;-0.51;65.97
21401;BME280;18038;50.166;18.908;2023-04-06T16:06:42;98106.41;;;-0.34;66.28
21401;BME280;18038;50.166;18.908;2023-04-06T16:09:50;98112.97;;;-0.40;65.81
21401;BME280;18038;50.166;18.908;2023-04-06T16:13:01;98114.78;;;-0.40;65.94
21401;BME280;18038;50.166;18.908;2023-04-06T16:16:08;98118.63;;;-0.56;65.69
21401;BME280;18038;50.166;18.908;2023-04-06T16:19:15;98107.31;;;-0.56;65.81
21401;BME280;18038;50.166;18.908;2023-04-06T16:22:23;98117.44;;;-0.52;65.57
21401;BME280;18038;50.166;18.908;2023-04-06T16:25:31;98118.25;;;-0.51;65.72
21401;BME280;18038;50.166;18.908;2023-04-06T16:28:39;98116.69;;;-0.42;65.55
21401;BME280;18038;50.166;18.908;2023-04-06T16:31:46;98114.16;;;-0.33;64.91
21401;BME280;18038;50.166;18.908;2023-04-06T16:34:52;98121.06;;;-0.32;64.84
21401;BME280;18038;50.166;18.908;2023-04-06T16:37:59;98121.06;;;-0.32;64.81
21401;BME280;18038;50.166;18.908;2023-04-06T16:41:05;98119.94;;;-0.18;64.66